sensor_id;sensor_type;location;lat;lon;timestamp;P1;durP1;ratioP1;P2;durP2;ratioP2
31308;SDS011;17936;52.446;10.840;2023-07-13T00:01:18;1076.07;;;779.55;;
31308;SDS011;17936;52.446;10.840;2023-07-13T00:03:44;1064.43;;;787.78;;
31308;SDS011;17936;52.446;10.840;2023-07-13T00:06:10;1112.43;;;782.53;;
31308;SDS011;17936;52.446;10.840;2023-07-13T00:08:36;1072.85;;;783.00;;
31308;SDS011;17936;52.446;10.840;2023-07-13T00:11:02;1094.63;;;774.88;;
31308;SDS011;17936;52.446;10.840;2023-07-13T00:13:28;1054.82;;;772.33;;
31308;SDS011;17936;52.446;10.840;2023-07-13T00:15:56;1073.68;;;772.05;;
31308;SDS011;17936;52.446;10.840;2023-07-13T00:18:22;1047.07;;;768.47;;
31308;SDS011;17936;52.446;10.840;2023-07-13T00:20:48;1075.10;;;785.70;;
31308;SDS011;17936;52.446;10.840;2023-07-13T00:23:14;1133.10;;;800.47;;
31308;SDS011;17936;52.446;10.840;2023-07-13T00:25:40;1123.63;;;795.53;;
31308;SDS011;17936;52.446;10.840;2023-07-13T00:28:05;1078.22;;;777.88;;
31308;SDS011;17936;52.446;10.840;2023-07-13T00:30:31;1126.72;;;793.67;;
31308;SDS011;17936;52.446;10.840;2023-07-13T00:32:56;1122.78;;;793.40;;
31308;SDS011;17936;52.446;10.840;2023-07-13T00:35:22;1150.93;;;800.78;;
31308;SDS011;17936;52.446;10.840;2023-07-13T00:37:48;1128.68;;;797.28;;
31308;SDS011;17936;52.446;10.840;2023-07-13T00:40:14;1146.03;;;818.50;;
31308;SDS011;17936;52.446;10.840;2023-07-13T00:42:40;1134.18;;;794.10;;
31308;SDS011;17936;52.446;10.840;2023-07-13T00:46:02;1105.32;;;800.33;;
31308;SDS011;17936;52.446;10.840;2023-07-13T00:47:52;1165.95;;;825.60;;
31308;SDS011;17936;52.446;10.840;2023-07-13T00:50:18;1088.50;;;823.92;;
31308;SDS011;17936;52.446;10.840;2023-07-13T00:52:47;1123.50;;;834.17;;
31308;SDS011;17936;52.446;10.840;2023-07-13T00:55:15;1144.72;;;846.20;;
31308;SDS011;17936;52.446;10.840;2023-07-13T00:57:42;1072.15;;;841.80;;
31308;SDS011;17936;52.446;10.840;2023-07-13T01:00:09;1127.80;;;840.63;;
31308;SDS011;17936;52.446;10.840;2023-07-13T01:02:37;1108.65;;;842.78;;
31308;SDS011;17936;52.446;10.840;2023-07-13T01:05:08;1107.32;;;832.25;;
31308;SDS011;17936;52.446;10.840;2023-07-13T01:07:35;1148.32;;;839.67;;
31308;SDS011;17936;52.446;10.840;2023-07-13T01:10:01;1104.40;;;828.22;;
31308;SDS011;17936;52.446;10.840;2023-07-13T01:12:28;1110.93;;;836.50;;
31308;SDS011;17936;52.446;10.840;2023-07-13T01:14:57;1094.75;;;826.05;;
31308;SDS011;17936;52.446;10.840;2023-07-13T01:17:23;1117.55;;;846.75;;
31308;SDS011;17936;52.446;10.840;2023-07-13T01:19:49;1133.38;;;839.05;;
31308;SDS011;17936;52.446;10.840;2023-07-13T01:22:15;1120.82;;;852.88;;
31308;SDS011;17936;52.446;10.840;2023-07-13T01:24:44;1134.97;;;844.33;;
31308;SDS011;17936;52.446;10.840;2023-07-13T01:27:12;1106.65;;;834.55;;
31308;SDS011;17936;52.446;10.840;2023-07-13T01:29:39;1158.50;;;859.88;;
31308;SDS011;17936;52.446;10.840;2023-07-13T01:32:10;1161.80;;;854.03;;
31308;SDS011;17936;52.446;10.840;2023-07-13T01:34:38;1148.13;;;864.35;;
31308;SDS011;17936;52.446;10.840;2023-07-13T01:37:07;1128.72;;;849.58;;
31308;SDS011;17936;52.446;10.840;2023-07-13T01:39:33;1087.63;;;823.78;;
31308;SDS011;17936;52.446;10.840;2023-07-13T01:41:59;1090.40;;;848.42;;
31308;SDS011;17936;52.446;10.840;2023-07-13T01:44:24;1117.80;;;837.60;;
31308;SDS011;17936;52.446;10.840;2023-07-13T01:46:50;1082.55;;;826.90;;
31308;SDS011;17936;52.446;10.840;2023-07-13T01:49:16;1114.32;;;851.00;;
31308;SDS011;17936;52.446;10.840;2023-07-13T01:51:41;1084.18;;;825.65;;
31308;SDS011;17936;52.446;10.840;2023-07-13T01:54:07;1096.32;;;839.33;;
31308;SDS011;17936;52.446;10.840;2023-07-13T01:56:32;1104.55;;;843.60;;
31308;SDS011;17936;52.446;10.840;2023-07-13T01:58:58;1143.65;;;850.58;;
31308;SDS011;17936;52.446;10.840;2023-07-13T02:01:23;1107.70;;;839.30;;
31308;SDS011;17936;52.446;10.840;2023-07-13T02:03:49;1119.20;;;838.63;;
31308;SDS011;17936;52.446;10.840;2023-07-13T02:06:14;1089.07;;;843.92;;
31308;SDS011;17936;52.446;10.840;2023-07-13T02:08:40;1117.22;;;846.70;;
31308;SDS011;17936;52.446;10.840;2023-07-13T02:11:07;1089.90;;;844.25;;
31308;SDS011;17936;52.446;10.840;2023-07-13T02:13:32;1086.72;;;835.95;;
31308;SDS011;17936;52.446;10.840;2023-07-13T02:15:58;1084.80;;;833.45;;
31308;SDS011;17936;52.446;10.840;2023-07-13T02:18:23;1089.00;;;824.05;;
31308;SDS011;17936;52.446;10.840;2023-07-13T02:20:49;1082.15;;;826.75;;
31308;SDS011;17936;52.446;10.840;2023-07-13T02:23:14;1109.13;;;851.45;;
31308;SDS011;17936;52.446;10.840;2023-07-13T02:25:40;1060.40;;;828.33;;
31308;SDS011;17936;52.446;10.840;2023-07-13T02:28:06;1068.63;;;836.17;;
31308;SDS011;17936;52.446;10.840;2023-07-13T02:30:31;1100.57;;;861.53;;
31308;SDS011;17936;52.446;10.840;2023-07-13T02:32:59;1088.57;;;839.85;;
31308;SDS011;17936;52.446;10.840;2023-07-13T02:35:24;1064.55;;;834.92;;
31308;SDS011;17936;52.446;10.840;2023-07-13T02:37:50;1076.35;;;834.83;;
31308;SDS011;17936;52.446;10.840;2023-07-13T02:40:16;1086.03;;;850.78;;
31308;SDS011;17936;52.446;10.840;2023-07-13T02:42:41;1085.80;;;834.08;;
31308;SDS011;17936;52.446;10.840;2023-07-13T02:45:07;1065.60;;;818.65;;
31308;SDS011;17936;52.446;10.840;2023-07-13T02:47:34;1064.82;;;854.13;;
31308;SDS011;17936;52.446;10.840;2023-07-13T02:50:01;1085.47;;;837.38;;
31308;SDS011;17936;52.446;10.840;2023-07-13T02:52:27;1027.50;;;818.03;;
31308;SDS011;17936;52.446;10.840;2023-07-13T02:54:52;1070.93;;;841.30;;
31308;SDS011;17936;52.446;10.840;2023-07-13T02:57:18;1069.53;;;846.15;;
31308;SDS011;17936;52.446;10.840;2023-07-13T02:59:43;1037.57;;;834.45;;
31308;SDS011;17936;52.446;10.840;2023-07-13T03:02:09;1034.15;;;828.25;;
31308;SDS011;17936;52.446;10.840;2023-07-13T03:04:35;1040.05;;;835.33;;
31308;SDS011;17936;52.446;10.840;2023-07-13T03:07:01;1029.43;;;826.97;;
31308;SDS011;17936;52.446;10.840;2023-07-13T03:09:28;1066.88;;;857.45;;
31308;SDS011;17936;52.446;10.840;2023-07-13T03:11:54;1032.80;;;835.67;;
31308;SDS011;17936;52.446;10.840;2023-07-13T03:14:20;1054.90;;;846.40;;
31308;SDS011;17936;52.446;10.840;2023-07-13T03:16:49;1088.95;;;858.28;;
31308;SDS011;17936;52.446;10.840;2023-07-13T03:19:15;1074.25;;;846.17;;
31308;SDS011;17936;52.446;10.840;2023-07-13T03:21:40;1037.70;;;839.97;;
31308;SDS011;17936;52.446;10.840;2023-07-13T03:24:06;1043.93;;;837.90;;
31308;SDS011;17936;52.446;10.840;2023-07-13T03:26:32;1022.33;;;819.47;;
31308;SDS011;17936;52.446;10.840;2023-07-13T03:28:57;1064.85;;;842.83;;
31308;SDS011;17936;52.446;10.840;2023-07-13T03:31:28;1057.07;;;847.90;;
31308;SDS011;17936;52.446;10.840;2023-07-13T03:33:55;1031.53;;;837.65;;
31308;SDS011;17936;52.446;10.840;2023-07-13T03:36:26;1008.25;;;813.58;;
31308;SDS011;17936;52.446;10.840;2023-07-13T03:38:54;1070.25;;;850.45;;
31308;SDS011;17936;52.446;10.840;2023-07-13T03:41:23;1021.10;;;834.33;;
31308;SDS011;17936;52.446;10.840;2023-07-13T03:43:50;1029.70;;;840.78;;
31308;SDS011;17936;52.446;10.840;2023-07-13T03:46:16;1054.53;;;841.03;;
31308;SDS011;17936;52.446;10.840;2023-07-13T03:48:43;1001.72;;;820.47;;
31308;SDS011;17936;52.446;10.840;2023-07-13T03:51:10;1043.85;;;844.05;;
31308;SDS011;17936;52.446;10.840;2023-07-13T03:53:39;1037.28;;;830.75;;
31308;SDS011;17936;52.446;10.840;2023-07-13T03:56:06;1004.22;;;803.17;;
31308;SDS011;17936;52.446;10.840;2023-07-13T03:58:34;996.08;;;820.78;;
31308;SDS011;17936;52.446;10.840;2023-07-13T04:01:01;1009.67;;;820.67;;
31308;SDS011;17936;52.446;10.840;2023-07-13T04:03:28;1000.97;;;817.05;;
31308;SDS011;17936;52.446;10.840;2023-07-13T04:05:57;1011.63;;;833.30;;
31308;SDS011;17936;52.446;10.840;2023-07-13T04:08:24;1007.65;;;840.00;;
31308;SDS011;17936;52.446;10.840;2023-07-13T04:10:57;1017.95;;;821.03;;
31308;SDS011;17936;52.446;10.840;2023-07-13T04:13:23;997.70;;;822.92;;
31308;SDS011;17936;52.446;10.840;2023-07-13T04:15:50;1002.22;;;840.08;;
31308;SDS011;17936;52.446;10.840;2023-07-13T04:18:17;999.80;;;820.88;;
31308;SDS011;17936;52.446;10.840;2023-07-13T04:20:44;1020.63;;;831.13;;
31308;SDS011;17936;52.446;10.840;2023-07-13T04:23:10;1003.58;;;834.20;;
31308;SDS011;17936;52.446;10.840;2023-07-13T04:25:36;1014.65;;;836.92;;
31308;SDS011;17936;52.446;10.840;2023-07-13T04:28:02;989.05;;;815.38;;
31308;SDS011;17936;52.446;10.840;2023-07-13T04:30:28;1024.80;;;829.20;;
31308;SDS011;17936;52.446;10.840;2023-07-13T04:32:54;1008.67;;;834.55;;
31308;SDS011;17936;52.446;10.840;2023-07-13T04:35:20;991.88;;;824.35;;
31308;SDS011;17936;52.446;10.840;2023-07-13T04:37:46;956.78;;;806.95;;
31308;SDS011;17936;52.446;10.840;2023-07-13T04:40:12;981.38;;;817.30;;
31308;SDS011;17936;52.446;10.840;2023-07-13T04:42:38;969.03;;;818.00;;
31308;SDS011;17936;52.446;10.840;2023-07-13T04:45:05;999.50;;;830.35;;
31308;SDS011;17936;52.446;10.840;2023-07-13T04:47:31;1015.20;;;841.53;;
31308;SDS011;17936;52.446;10.840;2023-07-13T04:49:57;985.17;;;828.17;;
31308;SDS011;17936;52.446;10.840;2023-07-13T04:52:23;951.55;;;809.63;;
31308;SDS011;17936;52.446;10.840;2023-07-13T04:54:48;984.28;;;827.03;;
31308;SDS011;17936;52.446;10.840;2023-07-13T04:57:14;989.33;;;821.67;;
31308;SDS011;17936;52.446;10.840;2023-07-13T04:59:40;988.00;;;841.85;;
31308;SDS011;17936;52.446;10.840;2023-07-13T05:02:05;951.90;;;819.28;;
31308;SDS011;17936;52.446;10.840;2023-07-13T05:04:31;979.10;;;811.67;;
31308;SDS011;17936;52.446;10.840;2023-07-13T05:06:57;955.65;;;803.53;;
31308;SDS011;17936;52.446;10.840;2023-07-13T05:09:22;1001.72;;;830.85;;
31308;SDS011;17936;52.446;10.840;2023-07-13T05:11:48;940.03;;;811.33;;
31308;SDS011;17936;52.446;10.840;2023-07-13T05:14:13;987.47;;;821.83;;
31308;SDS011;17936;52.446;10.840;2023-07-13T05:16:40;975.35;;;819.20;;
31308;SDS011;17936;52.446;10.840;2023-07-13T05:19:05;958.08;;;813.05;;
31308;SDS011;17936;52.446;10.840;2023-07-13T05:21:31;942.65;;;820.00;;
31308;SDS011;17936;52.446;10.840;2023-07-13T05:23:57;960.40;;;812.72;;
31308;SDS011;17936;52.446;10.840;2023-07-13T05:26:22;937.63;;;786.75;;
31308;SDS011;17936;52.446;10.840;2023-07-13T05:28:48;956.90;;;805.92;;
31308;SDS011;17936;52.446;10.840;2023-07-13T05:31:13;931.40;;;788.35;;
31308;SDS011;17936;52.446;10.840;2023-07-13T05:33:39;941.67;;;788.67;;
31308;SDS011;17936;52.446;10.840;2023-07-13T05:36:05;953.45;;;791.70;;
31308;SDS011;17936;52.446;10.840;2023-07-13T05:38:31;969.53;;;814.92;;
31308;SDS011;17936;52.446;10.840;2023-07-13T05:40:57;919.63;;;778.58;;
31308;SDS011;17936;52.446;10.840;2023-07-13T05:43:23;961.65;;;804.03;;
31308;SDS011;17936;52.446;10.840;2023-07-13T05:45:50;928.38;;;780.72;;
31308;SDS011;17936;52.446;10.840;2023-07-13T05:48:18;923.15;;;780.00;;
31308;SDS011;17936;52.446;10.840;2023-07-13T05:50:44;946.55;;;800.97;;
31308;SDS011;17936;52.446;10.840;2023-07-13T05:53:09;929.05;;;773.03;;
31308;SDS011;17936;52.446;10.840;2023-07-13T05:55:35;894.30;;;771.08;;
31308;SDS011;17936;52.446;10.840;2023-07-13T05:58:00;947.28;;;802.92;;
31308;SDS011;17936;52.446;10.840;2023-07-13T06:00:26;907.45;;;764.47;;
31308;SDS011;17936;52.446;10.840;2023-07-13T06:02:52;924.35;;;773.20;;
31308;SDS011;17936;52.446;10.840;2023-07-13T06:05:18;928.33;;;779.28;;
31308;SDS011;17936;52.446;10.840;2023-07-13T06:07:43;914.05;;;774.50;;
31308;SDS011;17936;52.446;10.840;2023-07-13T06:10:09;903.97;;;766.63;;
31308;SDS011;17936;52.446;10.840;2023-07-13T06:12:35;915.58;;;774.00;;
31308;SDS011;17936;52.446;10.840;2023-07-13T06:15:00;934.03;;;780.80;;
31308;SDS011;17936;52.446;10.840;2023-07-13T06:17:26;927.35;;;778.38;;
31308;SDS011;17936;52.446;10.840;2023-07-13T06:19:52;896.15;;;764.15;;
31308;SDS011;17936;52.446;10.840;2023-07-13T06:22:17;889.00;;;762.78;;
31308;SDS011;17936;52.446;10.840;2023-07-13T06:24:43;897.22;;;754.05;;
31308;SDS011;17936;52.446;10.840;2023-07-13T06:27:08;913.90;;;764.72;;
31308;SDS011;17936;52.446;10.840;2023-07-13T06:29:34;919.63;;;763.83;;
31308;SDS011;17936;52.446;10.840;2023-07-13T06:31:59;872.85;;;750.60;;
31308;SDS011;17936;52.446;10.840;2023-07-13T06:34:25;872.28;;;748.55;;
31308;SDS011;17936;52.446;10.840;2023-07-13T06:36:51;872.92;;;747.78;;
31308;SDS011;17936;52.446;10.840;2023-07-13T06:39:16;874.88;;;743.83;;
31308;SDS011;17936;52.446;10.840;2023-07-13T06:41:42;867.88;;;755.00;;
31308;SDS011;17936;52.446;10.840;2023-07-13T06:44:09;851.67;;;748.15;;
31308;SDS011;17936;52.446;10.840;2023-07-13T06:46:34;887.03;;;752.85;;
31308;SDS011;17936;52.446;10.840;2023-07-13T06:49:00;851.90;;;717.88;;
31308;SDS011;17936;52.446;10.840;2023-07-13T06:51:25;851.88;;;726.60;;
31308;SDS011;17936;52.446;10.840;2023-07-13T06:53:51;847.97;;;730.95;;
31308;SDS011;17936;52.446;10.840;2023-07-13T06:56:17;839.78;;;729.72;;
31308;SDS011;17936;52.446;10.840;2023-07-13T06:58:42;876.25;;;740.75;;
31308;SDS011;17936;52.446;10.840;2023-07-13T07:01:08;862.80;;;732.60;;
31308;SDS011;17936;52.446;10.840;2023-07-13T07:03:34;843.85;;;721.92;;
31308;SDS011;17936;52.446;10.840;2023-07-13T07:06:00;857.75;;;727.55;;
31308;SDS011;17936;52.446;10.840;2023-07-13T07:08:41;810.58;;;720.50;;
31308;SDS011;17936;52.446;10.840;2023-07-13T07:11:08;837.25;;;724.22;;
31308;SDS011;17936;52.446;10.840;2023-07-13T07:13:36;867.58;;;733.03;;
31308;SDS011;17936;52.446;10.840;2023-07-13T07:16:01;819.30;;;711.00;;
31308;SDS011;17936;52.446;10.840;2023-07-13T07:18:27;837.58;;;712.78;;
31308;SDS011;17936;52.446;10.840;2023-07-13T07:20:53;820.03;;;705.65;;
31308;SDS011;17936;52.446;10.840;2023-07-13T07:23:18;815.75;;;708.85;;
31308;SDS011;17936;52.446;10.840;2023-07-13T07:25:44;831.47;;;715.15;;
31308;SDS011;17936;52.446;10.840;2023-07-13T07:28:09;810.40;;;713.60;;
31308;SDS011;17936;52.446;10.840;2023-07-13T07:30:35;817.97;;;724.15;;
31308;SDS011;17936;52.446;10.840;2023-07-13T07:33:01;811.53;;;704.13;;
31308;SDS011;17936;52.446;10.840;2023-07-13T07:35:27;783.17;;;692.33;;
31308;SDS011;17936;52.446;10.840;2023-07-13T07:37:52;825.88;;;701.55;;
31308;SDS011;17936;52.446;10.840;2023-07-13T07:40:18;810.25;;;701.58;;
31308;SDS011;17936;52.446;10.840;2023-07-13T07:42:44;797.65;;;693.00;;
31308;SDS011;17936;52.446;10.840;2023-07-13T07:45:09;808.20;;;699.28;;
31308;SDS011;17936;52.446;10.840;2023-07-13T07:47:36;817.15;;;705.80;;
31308;SDS011;17936;52.446;10.840;2023-07-13T07:50:02;813.53;;;701.67;;
31308;SDS011;17936;52.446;10.840;2023-07-13T07:52:28;819.92;;;715.78;;
31308;SDS011;17936;52.446;10.840;2023-07-13T07:54:54;802.08;;;695.42;;
31308;SDS011;17936;52.446;10.840;2023-07-13T07:57:19;820.63;;;719.75;;
31308;SDS011;17936;52.446;10.840;2023-07-13T07:59:45;810.38;;;699.67;;
31308;SDS011;17936;52.446;10.840;2023-07-13T08:02:10;835.70;;;732.95;;
31308;SDS011;17936;52.446;10.840;2023-07-13T08:04:36;812.25;;;706.15;;
31308;SDS011;17936;52.446;10.840;2023-07-13T08:07:02;811.60;;;708.03;;
31308;SDS011;17936;52.446;10.840;2023-07-13T08:09:28;863.47;;;744.85;;
31308;SDS011;17936;52.446;10.840;2023-07-13T08:11:54;806.78;;;705.60;;
31308;SDS011;17936;52.446;10.840;2023-07-13T08:14:19;807.72;;;705.65;;
31308;SDS011;17936;52.446;10.840;2023-07-13T08:16:45;822.67;;;729.30;;
31308;SDS011;17936;52.446;10.840;2023-07-13T08:19:11;812.75;;;702.28;;
31308;SDS011;17936;52.446;10.840;2023-07-13T08:21:36;804.38;;;713.28;;
31308;SDS011;17936;52.446;10.840;2023-07-13T08:24:02;805.40;;;708.40;;
31308;SDS011;17936;52.446;10.840;2023-07-13T08:26:28;796.63;;;700.08;;
31308;SDS011;17936;52.446;10.840;2023-07-13T08:28:53;803.95;;;704.95;;
31308;SDS011;17936;52.446;10.840;2023-07-13T08:31:19;819.38;;;716.33;;
31308;SDS011;17936;52.446;10.840;2023-07-13T08:33:45;817.15;;;711.25;;
31308;SDS011;17936;52.446;10.840;2023-07-13T08:36:10;818.45;;;702.03;;
31308;SDS011;17936;52.446;10.840;2023-07-13T08:38:36;813.22;;;716.67;;
31308;SDS011;17936;52.446;10.840;2023-07-13T08:41:03;809.40;;;720.33;;
31308;SDS011;17936;52.446;10.840;2023-07-13T08:43:39;826.88;;;706.00;;
31308;SDS011;17936;52.446;10.840;2023-07-13T08:48:38;813.03;;;719.33;;
31308;SDS011;17936;52.446;10.840;2023-07-13T08:51:10;798.67;;;695.97;;
31308;SDS011;17936;52.446;10.840;2023-07-13T08:53:50;793.58;;;690.90;;
31308;SDS011;17936;52.446;10.840;2023-07-13T08:56:22;812.90;;;705.75;;
31308;SDS011;17936;52.446;10.840;2023-07-13T08:58:51;806.88;;;693.42;;
31308;SDS011;17936;52.446;10.840;2023-07-13T09:01:28;773.53;;;685.53;;
31308;SDS011;17936;52.446;10.840;2023-07-13T09:04:08;772.25;;;687.35;;
31308;SDS011;17936;52.446;10.840;2023-07-13T09:07:04;373.88;;;345.05;;
31308;SDS011;17936;52.446;10.840;2023-07-13T09:09:35;381.48;;;352.73;;
31308;SDS011;17936;52.446;10.840;2023-07-13T09:17:56;353.80;;;327.00;;
31308;SDS011;17936;52.446;10.840;2023-07-13T09:23:21;356.20;;;329.10;;
31308;SDS011;17936;52.446;10.840;2023-07-13T09:25:49;355.60;;;328.48;;
31308;SDS011;17936;52.446;10.840;2023-07-13T09:28:28;365.17;;;337.48;;
31308;SDS011;17936;52.446;10.840;2023-07-13T09:31:01;386.40;;;356.48;;
31308;SDS011;17936;52.446;10.840;2023-07-13T09:33:28;372.38;;;343.65;;
31308;SDS011;17936;52.446;10.840;2023-07-13T09:35:56;315.40;;;291.30;;
31308;SDS011;17936;52.446;10.840;2023-07-13T09:38:26;362.23;;;334.08;;
31308;SDS011;17936;52.446;10.840;2023-07-13T09:44:00;339.35;;;312.77;;
31308;SDS011;17936;52.446;10.840;2023-07-13T09:46:36;343.75;;;318.23;;
31308;SDS011;17936;52.446;10.840;2023-07-13T09:49:03;420.55;;;387.38;;
31308;SDS011;17936;52.446;10.840;2023-07-13T09:51:29;335.55;;;310.17;;
31308;SDS011;17936;52.446;10.840;2023-07-13T09:53:54;396.27;;;365.70;;
31308;SDS011;17936;52.446;10.840;2023-07-13T09:56:21;374.83;;;346.10;;
31308;SDS011;17936;52.446;10.840;2023-07-13T09:58:48;363.63;;;335.30;;
31308;SDS011;17936;52.446;10.840;2023-07-13T10:01:14;344.13;;;317.83;;
31308;SDS011;17936;52.446;10.840;2023-07-13T10:03:42;333.92;;;308.85;;
31308;SDS011;17936;52.446;10.840;2023-07-13T10:06:19;329.33;;;305.10;;
31308;SDS011;17936;52.446;10.840;2023-07-13T10:08:47;368.35;;;339.88;;
31308;SDS011;17936;52.446;10.840;2023-07-13T10:11:21;370.52;;;341.48;;
31308;SDS011;17936;52.446;10.840;2023-07-13T10:14:37;358.23;;;331.25;;
31308;SDS011;17936;52.446;10.840;2023-07-13T10:16:39;338.83;;;313.13;;
31308;SDS011;17936;52.446;10.840;2023-07-13T10:22:18;345.10;;;318.67;;
31308;SDS011;17936;52.446;10.840;2023-07-13T10:24:46;355.27;;;327.35;;
31308;SDS011;17936;52.446;10.840;2023-07-13T10:27:16;354.27;;;327.05;;
31308;SDS011;17936;52.446;10.840;2023-07-13T10:29:50;362.15;;;334.70;;
31308;SDS011;17936;52.446;10.840;2023-07-13T10:32:21;346.85;;;320.42;;
31308;SDS011;17936;52.446;10.840;2023-07-13T10:34:49;365.65;;;338.73;;
31308;SDS011;17936;52.446;10.840;2023-07-13T10:37:19;308.48;;;284.92;;
31308;SDS011;17936;52.446;10.840;2023-07-13T10:39:52;293.80;;;272.05;;
31308;SDS011;17936;52.446;10.840;2023-07-13T10:42:35;342.40;;;316.42;;
31308;SDS011;17936;52.446;10.840;2023-07-13T10:45:14;357.30;;;330.00;;
31308;SDS011;17936;52.446;10.840;2023-07-13T10:47:42;341.27;;;315.65;;
31308;SDS011;17936;52.446;10.840;2023-07-13T10:50:11;311.50;;;288.45;;
31308;SDS011;17936;52.446;10.840;2023-07-13T10:52:50;311.17;;;287.70;;
31308;SDS011;17936;52.446;10.840;2023-07-13T10:55:39;316.42;;;292.38;;
31308;SDS011;17936;52.446;10.840;2023-07-13T11:01:04;314.02;;;290.48;;
31308;SDS011;17936;52.446;10.840;2023-07-13T11:23:51;345.67;;;319.20;;
31308;SDS011;17936;52.446;10.840;2023-07-13T11:26:38;344.67;;;318.33;;
31308;SDS011;17936;52.446;10.840;2023-07-13T11:31:40;383.90;;;354.27;;
31308;SDS011;17936;52.446;10.840;2023-07-13T11:34:10;436.95;;;402.33;;
31308;SDS011;17936;52.446;10.840;2023-07-13T11:36:39;342.83;;;315.85;;
31308;SDS011;17936;52.446;10.840;2023-07-13T11:39:15;354.42;;;327.30;;
31308;SDS011;17936;52.446;10.840;2023-07-13T11:41:49;371.20;;;343.10;;
31308;SDS011;17936;52.446;10.840;2023-07-13T11:44:22;361.30;;;332.13;;
31308;SDS011;17936;52.446;10.840;2023-07-13T11:46:51;398.85;;;368.13;;
31308;SDS011;17936;52.446;10.840;2023-07-13T11:49:19;379.35;;;349.10;;
31308;SDS011;17936;52.446;10.840;2023-07-13T11:51:46;401.80;;;369.95;;
31308;SDS011;17936;52.446;10.840;2023-07-13T11:54:22;373.77;;;343.88;;
31308;SDS011;17936;52.446;10.840;2023-07-13T11:56:55;452.77;;;416.90;;
31308;SDS011;17936;52.446;10.840;2023-07-13T11:59:25;378.15;;;348.27;;
31308;SDS011;17936;52.446;10.840;2023-07-13T12:01:51;366.20;;;337.55;;
31308;SDS011;17936;52.446;10.840;2023-07-13T12:04:26;340.20;;;313.85;;
31308;SDS011;17936;52.446;10.840;2023-07-13T12:06:57;393.98;;;362.00;;
31308;SDS011;17936;52.446;10.840;2023-07-13T12:09:29;377.05;;;347.38;;
31308;SDS011;17936;52.446;10.840;2023-07-13T12:11:55;417.02;;;384.83;;
31308;SDS011;17936;52.446;10.840;2023-07-13T12:14:23;392.58;;;361.50;;
31308;SDS011;17936;52.446;10.840;2023-07-13T12:16:50;358.83;;;330.88;;
31308;SDS011;17936;52.446;10.840;2023-07-13T12:19:17;406.55;;;374.67;;
31308;SDS011;17936;52.446;10.840;2023-07-13T12:21:47;354.15;;;327.02;;
31308;SDS011;17936;52.446;10.840;2023-07-13T12:24:17;348.02;;;321.25;;
31308;SDS011;17936;52.446;10.840;2023-07-13T12:29:17;370.95;;;341.70;;
31308;SDS011;17936;52.446;10.840;2023-07-13T12:31:44;398.67;;;366.58;;
31308;SDS011;17936;52.446;10.840;2023-07-13T12:36:48;391.80;;;360.85;;
31308;SDS011;17936;52.446;10.840;2023-07-13T12:39:25;403.33;;;371.83;;
31308;SDS011;17936;52.446;10.840;2023-07-13T12:42:11;364.83;;;336.75;;
31308;SDS011;17936;52.446;10.840;2023-07-13T12:44:40;377.17;;;347.48;;
31308;SDS011;17936;52.446;10.840;2023-07-13T12:47:09;364.50;;;336.15;;
31308;SDS011;17936;52.446;10.840;2023-07-13T12:49:41;375.67;;;345.98;;
31308;SDS011;17936;52.446;10.840;2023-07-13T12:52:20;389.00;;;358.88;;
31308;SDS011;17936;52.446;10.840;2023-07-13T12:54:58;397.42;;;366.17;;
31308;SDS011;17936;52.446;10.840;2023-07-13T12:57:28;351.45;;;324.77;;
31308;SDS011;17936;52.446;10.840;2023-07-13T12:59:54;355.88;;;327.75;;
31308;SDS011;17936;52.446;10.840;2023-07-13T13:02:26;355.52;;;327.63;;
31308;SDS011;17936;52.446;10.840;2023-07-13T13:04:59;348.02;;;321.48;;
31308;SDS011;17936;52.446;10.840;2023-07-13T13:07:26;357.75;;;330.30;;
31308;SDS011;17936;52.446;10.840;2023-07-13T13:09:52;367.38;;;338.00;;
31308;SDS011;17936;52.446;10.840;2023-07-13T13:12:21;420.83;;;387.70;;
31308;SDS011;17936;52.446;10.840;2023-07-13T13:14:47;368.02;;;339.08;;
31308;SDS011;17936;52.446;10.840;2023-07-13T13:17:17;372.15;;;342.63;;
31308;SDS011;17936;52.446;10.840;2023-07-13T13:19:52;354.85;;;327.50;;
31308;SDS011;17936;52.446;10.840;2023-07-13T13:22:21;400.65;;;369.25;;
31308;SDS011;17936;52.446;10.840;2023-07-13T13:24:46;371.05;;;341.83;;
31308;SDS011;17936;52.446;10.840;2023-07-13T13:27:19;417.27;;;384.05;;
31308;SDS011;17936;52.446;10.840;2023-07-13T13:29:47;389.13;;;358.75;;
31308;SDS011;17936;52.446;10.840;2023-07-13T13:32:16;384.13;;;354.65;;
31308;SDS011;17936;52.446;10.840;2023-07-13T13:34:42;397.63;;;365.50;;
31308;SDS011;17936;52.446;10.840;2023-07-13T13:37:18;374.05;;;343.98;;
31308;SDS011;17936;52.446;10.840;2023-07-13T13:39:48;350.92;;;324.35;;
31308;SDS011;17936;52.446;10.840;2023-07-13T13:42:14;332.85;;;307.80;;
31308;SDS011;17936;52.446;10.840;2023-07-13T13:44:40;364.90;;;336.45;;
31308;SDS011;17936;52.446;10.840;2023-07-13T13:47:20;369.83;;;340.08;;
31308;SDS011;17936;52.446;10.840;2023-07-13T13:49:56;360.73;;;332.67;;
31308;SDS011;17936;52.446;10.840;2023-07-13T13:52:23;373.52;;;344.75;;
31308;SDS011;17936;52.446;10.840;2023-07-13T13:54:50;418.38;;;385.55;;
31308;SDS011;17936;52.446;10.840;2023-07-13T13:57:20;379.35;;;348.95;;
31308;SDS011;17936;52.446;10.840;2023-07-13T13:59:49;375.75;;;346.15;;
31308;SDS011;17936;52.446;10.840;2023-07-13T14:02:25;339.27;;;313.48;;
31308;SDS011;17936;52.446;10.840;2023-07-13T14:04:57;349.10;;;321.75;;
31308;SDS011;17936;52.446;10.840;2023-07-13T14:07:25;347.98;;;320.52;;
31308;SDS011;17936;52.446;10.840;2023-07-13T14:09:55;391.65;;;361.05;;
31308;SDS011;17936;52.446;10.840;2023-07-13T14:12:22;376.85;;;348.00;;
31308;SDS011;17936;52.446;10.840;2023-07-13T14:14:51;362.45;;;334.17;;
31308;SDS011;17936;52.446;10.840;2023-07-13T14:17:20;359.52;;;332.17;;
31308;SDS011;17936;52.446;10.840;2023-07-13T14:19:49;339.92;;;314.33;;
31308;SDS011;17936;52.446;10.840;2023-07-13T14:22:16;345.45;;;318.15;;
31308;SDS011;17936;52.446;10.840;2023-07-13T14:24:42;350.02;;;322.65;;
31308;SDS011;17936;52.446;10.840;2023-07-13T14:27:09;387.27;;;356.48;;
31308;SDS011;17936;52.446;10.840;2023-07-13T14:29:36;405.20;;;373.25;;
31308;SDS011;17936;52.446;10.840;2023-07-13T14:32:01;379.10;;;349.67;;
31308;SDS011;17936;52.446;10.840;2023-07-13T14:34:27;405.45;;;374.13;;